sensor_id;sensor_type;location;lat;lon;timestamp;temperature;humidity
14884;DHT22;7534;50.762;7.000;2022-12-18T00:01:36;-7.10;99.90
14884;DHT22;7534;50.762;7.000;2022-12-18T00:04:06;-7.10;99.90
14884;DHT22;7534;50.762;7.000;2022-12-18T00:06:37;-7.10;99.90
14884;DHT22;7534;50.762;7.000;2022-12-18T00:09:05;-7.10;99.90
14884;DHT22;7534;50.762;7.000;2022-12-18T00:11:36;-7.10;99.90
14884;DHT22;7534;50.762;7.000;2022-12-18T00:14:06;-7.10;99.90
14884;DHT22;7534;50.762;7.000;2022-12-18T00:16:33;-7.20;99.90
14884;DHT22;7534;50.762;7.000;2022-12-18T00:19:06;-7.10;99.90
14884;DHT22;7534;50.762;7.000;2022-12-18T00:21:36;-7.00;99.90
14884;DHT22;7534;50.762;7.000;2022-12-18T00:24:21;-7.10;99.90
14884;DHT22;7534;50.762;7.000;2022-12-18T00:26:49;-7.10;99.90
14884;DHT22;7534;50.762;7.000;2022-12-18T00:29:21;-7.00;99.90
14884;DHT22;7534;50.762;7.000;2022-12-18T00:31:51;-7.00;99.90
14884;DHT22;7534;50.762;7.000;2022-12-18T00:34:20;-7.00;99.90
14884;DHT22;7534;50.762;7.000;2022-12-18T00:36:51;-7.10;99.90
14884;DHT22;7534;50.762;7.000;2022-12-18T00:39:21;-7.10;99.90
14884;DHT22;7534;50.762;7.000;2022-12-18T00:41:53;-7.10;99.90
14884;DHT22;7534;50.762;7.000;2022-12-18T00:44:41;-7.10;99.90
14884;DHT22;7534;50.762;7.000;2022-12-18T00:47:09;-7.10;99.90
14884;DHT22;7534;50.762;7.000;2022-12-18T00:49:36;-7.10;99.90
14884;DHT22;7534;50.762;7.000;2022-12-18T00:52:04;-7.20;99.90
14884;DHT22;7534;50.762;7.000;2022-12-18T00:54:34;-7.30;99.90
14884;DHT22;7534;50.762;7.000;2022-12-18T00:57:01;-7.40;99.90
14884;DHT22;7534;50.762;7.000;2022-12-18T00:59:34;-7.30;99.90
14884;DHT22;7534;50.762;7.000;2022-12-18T01:02:05;-7.20;99.90
14884;DHT22;7534;50.762;7.000;2022-12-18T01:04:33;-7.20;99.90
14884;DHT22;7534;50.762;7.000;2022-12-18T01:07:00;-7.30;99.90
14884;DHT22;7534;50.762;7.000;2022-12-18T01:09:28;-7.30;99.90
14884;DHT22;7534;50.762;7.000;2022-12-18T01:12:01;-7.30;99.90
14884;DHT22;7534;50.762;7.000;2022-12-18T01:14:28;-7.30;99.90
14884;DHT22;7534;50.762;7.000;2022-12-18T01:16:55;-7.30;99.90
14884;DHT22;7534;50.762;7.000;2022-12-18T01:19:24;-7.40;99.90
14884;DHT22;7534;50.762;7.000;2022-12-18T01:21:54;-7.40;99.90
14884;DHT22;7534;50.762;7.000;2022-12-18T01:24:28;-7.50;99.90
14884;DHT22;7534;50.762;7.000;2022-12-18T01:26:54;-7.50;99.90
14884;DHT22;7534;50.762;7.000;2022-12-18T01:29:20;-7.50;99.90
14884;DHT22;7534;50.762;7.000;2022-12-18T01:31:45;-7.50;99.90
14884;DHT22;7534;50.762;7.000;2022-12-18T01:34:11;-7.50;99.90
14884;DHT22;7534;50.762;7.000;2022-12-18T01:36:37;-7.50;99.90
14884;DHT22;7534;50.762;7.000;2022-12-18T01:39:10;-7.50;99.90
14884;DHT22;7534;50.762;7.000;2022-12-18T01:41:38;-7.50;99.90
14884;DHT22;7534;50.762;7.000;2022-12-18T01:50:14;-7.60;99.90
14884;DHT22;7534;50.762;7.000;2022-12-18T01:52:48;-7.40;99.90
14884;DHT22;7534;50.762;7.000;2022-12-18T01:55:19;-7.20;99.90
14884;DHT22;7534;50.762;7.000;2022-12-18T01:57:48;-7.10;99.90
14884;DHT22;7534;50.762;7.000;2022-12-18T02:00:20;-7.20;99.90
14884;DHT22;7534;50.762;7.000;2022-12-18T02:02:47;-7.00;99.90
14884;DHT22;7534;50.762;7.000;2022-12-18T02:05:23;-7.10;99.90
14884;DHT22;7534;50.762;7.000;2022-12-18T02:08:19;-6.90;99.90
14884;DHT22;7534;50.762;7.000;2022-12-18T02:11:05;-6.70;99.90
14884;DHT22;7534;50.762;7.000;2022-12-18T02:17:04;-6.80;99.90
14884;DHT22;7534;50.762;7.000;2022-12-18T02:28:20;-6.80;99.90
14884;DHT22;7534;50.762;7.000;2022-12-18T02:30:53;-7.00;99.90
14884;DHT22;7534;50.762;7.000;2022-12-18T02:33:24;-6.90;99.90
14884;DHT22;7534;50.762;7.000;2022-12-18T02:35:54;-6.80;99.90
14884;DHT22;7534;50.762;7.000;2022-12-18T02:38:24;-6.80;99.90
14884;DHT22;7534;50.762;7.000;2022-12-18T02:40:51;-6.90;99.90
14884;DHT22;7534;50.762;7.000;2022-12-18T02:43:19;-6.80;99.90
14884;DHT22;7534;50.762;7.000;2022-12-18T02:45:58;-6.90;99.90
14884;DHT22;7534;50.762;7.000;2022-12-18T02:48:33;-6.90;99.90
14884;DHT22;7534;50.762;7.000;2022-12-18T02:51:17;-6.90;99.90
14884;DHT22;7534;50.762;7.000;2022-12-18T02:54:10;-6.80;99.90
14884;DHT22;7534;50.762;7.000;2022-12-18T02:57:10;-6.90;99.90
14884;DHT22;7534;50.762;7.000;2022-12-18T03:05:50;-6.80;99.90
14884;DHT22;7534;50.762;7.000;2022-12-18T03:08:24;-6.70;99.90
14884;DHT22;7534;50.762;7.000;2022-12-18T03:11:04;-6.70;99.90
14884;DHT22;7534;50.762;7.000;2022-12-18T03:16:06;-6.70;99.90
14884;DHT22;7534;50.762;7.000;2022-12-18T03:18:41;-6.70;99.90
14884;DHT22;7534;50.762;7.000;2022-12-18T03:21:14;-6.70;99.90
14884;DHT22;7534;50.762;7.000;2022-12-18T03:23:48;-6.80;99.90
14884;DHT22;7534;50.762;7.000;2022-12-18T03:26:21;-6.80;99.90
14884;DHT22;7534;50.762;7.000;2022-12-18T03:29:14;-6.80;99.90
14884;DHT22;7534;50.762;7.000;2022-12-18T03:31:58;-6.80;99.90
14884;DHT22;7534;50.762;7.000;2022-12-18T03:34:33;-6.80;99.90
14884;DHT22;7534;50.762;7.000;2022-12-18T03:37:01;-6.70;99.90
14884;DHT22;7534;50.762;7.000;2022-12-18T03:39:27;-6.70;99.90
14884;DHT22;7534;50.762;7.000;2022-12-18T03:42:06;-6.80;99.90
14884;DHT22;7534;50.762;7.000;2022-12-18T03:44:48;-6.70;99.90
14884;DHT22;7534;50.762;7.000;2022-12-18T03:47:39;-6.70;99.90
14884;DHT22;7534;50.762;7.000;2022-12-18T03:51:07;-6.70;99.90
14884;DHT22;7534;50.762;7.000;2022-12-18T03:53:23;-6.90;99.90
14884;DHT22;7534;50.762;7.000;2022-12-18T03:55:57;-6.80;99.90
14884;DHT22;7534;50.762;7.000;2022-12-18T03:58:25;-6.70;99.90
14884;DHT22;7534;50.762;7.000;2022-12-18T04:00:56;-6.60;99.90
14884;DHT22;7534;50.762;7.000;2022-12-18T04:03:25;-6.70;99.90
14884;DHT22;7534;50.762;7.000;2022-12-18T04:05:54;-6.70;99.90
14884;DHT22;7534;50.762;7.000;2022-12-18T04:08:21;-6.50;99.90
14884;DHT22;7534;50.762;7.000;2022-12-18T04:10:49;-6.40;99.90
14884;DHT22;7534;50.762;7.000;2022-12-18T04:13:22;-6.40;99.90
14884;DHT22;7534;50.762;7.000;2022-12-18T04:15:57;-6.50;99.90
14884;DHT22;7534;50.762;7.000;2022-12-18T04:18:22;-6.40;99.90
14884;DHT22;7534;50.762;7.000;2022-12-18T04:20:48;-6.40;99.90
14884;DHT22;7534;50.762;7.000;2022-12-18T04:23:14;-6.30;99.90
14884;DHT22;7534;50.762;7.000;2022-12-18T04:25:40;-6.30;99.90
14884;DHT22;7534;50.762;7.000;2022-12-18T04:28:05;-6.40;99.90
14884;DHT22;7534;50.762;7.000;2022-12-18T04:30:31;-6.40;99.90
14884;DHT22;7534;50.762;7.000;2022-12-18T04:32:57;-6.50;99.90
14884;DHT22;7534;50.762;7.000;2022-12-18T04:35:23;-6.40;99.90
14884;DHT22;7534;50.762;7.000;2022-12-18T04:37:48;-6.40;99.90
14884;DHT22;7534;50.762;7.000;2022-12-18T04:40:14;-6.40;99.90
14884;DHT22;7534;50.762;7.000;2022-12-18T04:42:40;-6.40;99.90
14884;DHT22;7534;50.762;7.000;2022-12-18T04:45:07;-6.40;99.90
14884;DHT22;7534;50.762;7.000;2022-12-18T04:47:33;-6.40;99.90
14884;DHT22;7534;50.762;7.000;2022-12-18T04:49:59;-6.40;99.90
14884;DHT22;7534;50.762;7.000;2022-12-18T04:52:24;-6.40;99.90
14884;DHT22;7534;50.762;7.000;2022-12-18T04:54:50;-6.30;99.90
14884;DHT22;7534;50.762;7.000;2022-12-18T04:57:16;-6.30;99.90
14884;DHT22;7534;50.762;7.000;2022-12-18T04:59:43;-6.20;99.90
14884;DHT22;7534;50.762;7.000;2022-12-18T05:02:09;-6.20;99.90
14884;DHT22;7534;50.762;7.000;2022-12-18T05:04:35;-6.10;99.90
14884;DHT22;7534;50.762;7.000;2022-12-18T05:07:01;-6.00;99.90
14884;DHT22;7534;50.762;7.000;2022-12-18T05:09:27;-6.00;99.90
14884;DHT22;7534;50.762;7.000;2022-12-18T05:11:52;-5.80;99.90
14884;DHT22;7534;50.762;7.000;2022-12-18T05:14:19;-5.80;99.90
14884;DHT22;7534;50.762;7.000;2022-12-18T05:16:44;-5.80;99.90
14884;DHT22;7534;50.762;7.000;2022-12-18T05:19:10;-5.70;99.90
14884;DHT22;7534;50.762;7.000;2022-12-18T05:21:36;-5.70;99.90
14884;DHT22;7534;50.762;7.000;2022-12-18T05:24:01;-5.70;99.90
14884;DHT22;7534;50.762;7.000;2022-12-18T05:26:27;-5.60;99.90
14884;DHT22;7534;50.762;7.000;2022-12-18T05:28:56;-5.70;99.90
14884;DHT22;7534;50.762;7.000;2022-12-18T05:31:21;-5.70;99.90
14884;DHT22;7534;50.762;7.000;2022-12-18T05:33:48;-5.70;99.90
14884;DHT22;7534;50.762;7.000;2022-12-18T05:36:14;-5.70;99.90
14884;DHT22;7534;50.762;7.000;2022-12-18T05:38:40;-5.80;99.90
14884;DHT22;7534;50.762;7.000;2022-12-18T05:41:07;-5.80;99.90
14884;DHT22;7534;50.762;7.000;2022-12-18T05:43:35;-5.80;99.90
14884;DHT22;7534;50.762;7.000;2022-12-18T05:46:06;-5.80;99.90
14884;DHT22;7534;50.762;7.000;2022-12-18T05:48:36;-5.90;99.90
14884;DHT22;7534;50.762;7.000;2022-12-18T05:51:07;-6.00;99.90
14884;DHT22;7534;50.762;7.000;2022-12-18T05:53:35;-5.90;99.90
14884;DHT22;7534;50.762;7.000;2022-12-18T05:56:04;-5.80;99.90
14884;DHT22;7534;50.762;7.000;2022-12-18T05:58:31;-5.80;99.90
14884;DHT22;7534;50.762;7.000;2022-12-18T06:01:05;-5.80;99.90
14884;DHT22;7534;50.762;7.000;2022-12-18T06:03:35;-5.80;99.90
14884;DHT22;7534;50.762;7.000;2022-12-18T06:06:01;-5.80;99.90
14884;DHT22;7534;50.762;7.000;2022-12-18T06:08:27;-5.80;99.90
14884;DHT22;7534;50.762;7.000;2022-12-18T06:10:53;-5.70;99.90
14884;DHT22;7534;50.762;7.000;2022-12-18T06:13:20;-5.60;99.90
14884;DHT22;7534;50.762;7.000;2022-12-18T06:15:46;-5.70;99.90
14884;DHT22;7534;50.762;7.000;2022-12-18T06:18:12;-5.60;99.90
14884;DHT22;7534;50.762;7.000;2022-12-18T06:20:38;-5.60;99.90
14884;DHT22;7534;50.762;7.000;2022-12-18T06:23:05;-5.60;99.90
14884;DHT22;7534;50.762;7.000;2022-12-18T06:25:31;-5.60;99.90
14884;DHT22;7534;50.762;7.000;2022-12-18T06:27:58;-5.60;99.90
14884;DHT22;7534;50.762;7.000;2022-12-18T06:30:24;-5.70;99.90
14884;DHT22;7534;50.762;7.000;2022-12-18T06:32:50;-5.70;99.90
14884;DHT22;7534;50.762;7.000;2022-12-18T06:35:16;-5.80;99.90
14884;DHT22;7534;50.762;7.000;2022-12-18T06:37:42;-5.80;99.90
14884;DHT22;7534;50.762;7.000;2022-12-18T06:40:08;-5.90;99.90
14884;DHT22;7534;50.762;7.000;2022-12-18T06:42:33;-5.80;99.90
14884;DHT22;7534;50.762;7.000;2022-12-18T06:45:01;-5.90;99.90
14884;DHT22;7534;50.762;7.000;2022-12-18T06:47:27;-5.90;99.90
14884;DHT22;7534;50.762;7.000;2022-12-18T06:49:53;-5.80;99.90
14884;DHT22;7534;50.762;7.000;2022-12-18T06:52:19;-5.80;99.90
14884;DHT22;7534;50.762;7.000;2022-12-18T06:54:44;-5.80;99.90
14884;DHT22;7534;50.762;7.000;2022-12-18T06:57:10;-5.80;99.90
14884;DHT22;7534;50.762;7.000;2022-12-18T06:59:36;-5.80;99.90
14884;DHT22;7534;50.762;7.000;2022-12-18T07:02:02;-5.80;99.90
14884;DHT22;7534;50.762;7.000;2022-12-18T07:04:29;-5.70;99.90
14884;DHT22;7534;50.762;7.000;2022-12-18T07:06:55;-5.80;99.90
14884;DHT22;7534;50.762;7.000;2022-12-18T07:09:21;-5.70;99.90
14884;DHT22;7534;50.762;7.000;2022-12-18T07:11:47;-5.70;99.90
14884;DHT22;7534;50.762;7.000;2022-12-18T07:14:12;-5.70;99.90
14884;DHT22;7534;50.762;7.000;2022-12-18T07:16:38;-5.70;99.90
14884;DHT22;7534;50.762;7.000;2022-12-18T07:19:04;-5.60;99.90
14884;DHT22;7534;50.762;7.000;2022-12-18T07:21:29;-5.70;99.90
14884;DHT22;7534;50.762;7.000;2022-12-18T07:23:55;-5.60;99.90
14884;DHT22;7534;50.762;7.000;2022-12-18T07:26:21;-5.60;99.90
14884;DHT22;7534;50.762;7.000;2022-12-18T07:28:48;-5.50;99.90
14884;DHT22;7534;50.762;7.000;2022-12-18T07:31:17;-5.60;99.90
14884;DHT22;7534;50.762;7.000;2022-12-18T07:33:46;-5.50;99.90
14884;DHT22;7534;50.762;7.000;2022-12-18T07:36:12;-5.50;99.90
14884;DHT22;7534;50.762;7.000;2022-12-18T07:38:38;-5.40;99.90
14884;DHT22;7534;50.762;7.000;2022-12-18T07:41:07;-5.40;99.90
14884;DHT22;7534;50.762;7.000;2022-12-18T07:43:38;-5.50;99.90
14884;DHT22;7534;50.762;7.000;2022-12-18T07:46:05;-5.40;99.90
14884;DHT22;7534;50.762;7.000;2022-12-18T07:48:32;-5.40;99.90
14884;DHT22;7534;50.762;7.000;2022-12-18T07:51:05;-5.50;99.90
14884;DHT22;7534;50.762;7.000;2022-12-18T07:53:32;-5.30;99.90
14884;DHT22;7534;50.762;7.000;2022-12-18T07:56:01;-5.30;99.90
14884;DHT22;7534;50.762;7.000;2022-12-18T07:58:33;-5.30;99.90
14884;DHT22;7534;50.762;7.000;2022-12-18T08:03:34;-5.10;99.90
14884;DHT22;7534;50.762;7.000;2022-12-18T08:06:04;-5.10;99.90
14884;DHT22;7534;50.762;7.000;2022-12-18T08:08:32;-5.10;99.90
14884;DHT22;7534;50.762;7.000;2022-12-18T08:10:58;-5.00;99.90
14884;DHT22;7534;50.762;7.000;2022-12-18T08:13:25;-4.90;99.90
14884;DHT22;7534;50.762;7.000;2022-12-18T08:16:03;-4.90;99.90
14884;DHT22;7534;50.762;7.000;2022-12-18T08:18:32;-4.90;99.90
14884;DHT22;7534;50.762;7.000;2022-12-18T08:21:08;-4.80;99.90
14884;DHT22;7534;50.762;7.000;2022-12-18T08:23:35;-4.60;99.90
14884;DHT22;7534;50.762;7.000;2022-12-18T08:26:01;-4.20;99.90
14884;DHT22;7534;50.762;7.000;2022-12-18T08:28:26;-3.70;99.90
14884;DHT22;7534;50.762;7.000;2022-12-18T08:30:52;-3.50;99.90
14884;DHT22;7534;50.762;7.000;2022-12-18T08:33:18;-3.40;99.90
14884;DHT22;7534;50.762;7.000;2022-12-18T08:35:44;-3.30;99.90
14884;DHT22;7534;50.762;7.000;2022-12-18T08:38:09;-3.10;99.90
14884;DHT22;7534;50.762;7.000;2022-12-18T08:40:35;-3.00;99.90
14884;DHT22;7534;50.762;7.000;2022-12-18T08:43:01;-3.00;99.90
14884;DHT22;7534;50.762;7.000;2022-12-18T08:45:46;-2.80;99.90
14884;DHT22;7534;50.762;7.000;2022-12-18T08:48:11;-2.90;99.90
14884;DHT22;7534;50.762;7.000;2022-12-18T08:50:37;-2.90;99.90
14884;DHT22;7534;50.762;7.000;2022-12-18T08:53:03;-2.90;99.90
14884;DHT22;7534;50.762;7.000;2022-12-18T08:55:29;-2.60;99.90
14884;DHT22;7534;50.762;7.000;2022-12-18T08:57:54;-2.40;99.80
14884;DHT22;7534;50.762;7.000;2022-12-18T09:00:20;-2.30;99.20
14884;DHT22;7534;50.762;7.000;2022-12-18T09:02:46;-2.10;99.30
14884;DHT22;7534;50.762;7.000;2022-12-18T09:05:11;-2.10;98.90
14884;DHT22;7534;50.762;7.000;2022-12-18T09:07:37;-2.00;99.00
14884;DHT22;7534;50.762;7.000;2022-12-18T09:10:03;-1.80;98.70
14884;DHT22;7534;50.762;7.000;2022-12-18T09:12:31;-1.80;98.40
14884;DHT22;7534;50.762;7.000;2022-12-18T09:14:57;-1.80;98.20
14884;DHT22;7534;50.762;7.000;2022-12-18T09:17:23;-1.90;98.30
14884;DHT22;7534;50.762;7.000;2022-12-18T09:19:48;-2.00;98.50
14884;DHT22;7534;50.762;7.000;2022-12-18T09:22:14;-2.20;98.60
14884;DHT22;7534;50.762;7.000;2022-12-18T09:24:40;-2.30;98.80
14884;DHT22;7534;50.762;7.000;2022-12-18T09:27:06;-2.30;98.90
14884;DHT22;7534;50.762;7.000;2022-12-18T09:29:32;-2.40;99.40
14884;DHT22;7534;50.762;7.000;2022-12-18T09:31:58;-2.40;99.30
14884;DHT22;7534;50.762;7.000;2022-12-18T09:34:23;-2.30;99.30
14884;DHT22;7534;50.762;7.000;2022-12-18T09:36:50;-2.20;99.20
14884;DHT22;7534;50.762;7.000;2022-12-18T09:39:16;-2.20;99.20
14884;DHT22;7534;50.762;7.000;2022-12-18T09:41:54;-2.20;98.90
14884;DHT22;7534;50.762;7.000;2022-12-18T09:44:29;-2.00;99.10
14884;DHT22;7534;50.762;7.000;2022-12-18T09:47:30;-2.10;99.00
14884;DHT22;7534;50.762;7.000;2022-12-18T09:50:06;-2.00;99.00
14884;DHT22;7534;50.762;7.000;2022-12-18T09:52:50;-2.00;99.00
14884;DHT22;7534;50.762;7.000;2022-12-18T09:55:24;-1.80;98.90
14884;DHT22;7534;50.762;7.000;2022-12-18T09:58:45;-1.80;98.70
14884;DHT22;7534;50.762;7.000;2022-12-18T10:00:52;-1.70;98.70
14884;DHT22;7534;50.762;7.000;2022-12-18T10:03:19;-1.80;98.50
14884;DHT22;7534;50.762;7.000;2022-12-18T10:08:49;-1.70;98.70
14884;DHT22;7534;50.762;7.000;2022-12-18T10:26:05;-1.30;97.90
14884;DHT22;7534;50.762;7.000;2022-12-18T10:28:35;-1.20;98.00
14884;DHT22;7534;50.762;7.000;2022-12-18T10:31:12;-1.30;97.80
14884;DHT22;7534;50.762;7.000;2022-12-18T10:33:42;-1.10;97.90
14884;DHT22;7534;50.762;7.000;2022-12-18T10:36:08;-1.10;97.70
14884;DHT22;7534;50.762;7.000;2022-12-18T10:38:34;-1.10;97.70
14884;DHT22;7534;50.762;7.000;2022-12-18T10:43:42;-1.00;97.70
14884;DHT22;7534;50.762;7.000;2022-12-18T10:54:05;-1.00;97.40
14884;DHT22;7534;50.762;7.000;2022-12-18T10:56:39;-0.90;97.40
14884;DHT22;7534;50.762;7.000;2022-12-18T10:59:12;-0.80;97.50
14884;DHT22;7534;50.762;7.000;2022-12-18T11:02:00;-0.80;97.50
14884;DHT22;7534;50.762;7.000;2022-12-18T11:04:31;-0.80;97.30
14884;DHT22;7534;50.762;7.000;2022-12-18T11:07:08;-0.70;97.50
14884;DHT22;7534;50.762;7.000;2022-12-18T11:09:39;-0.70;97.30
14884;DHT22;7534;50.762;7.000;2022-12-18T11:12:27;-0.80;97.20
14884;DHT22;7534;50.762;7.000;2022-12-18T11:14:56;-0.80;97.60
14884;DHT22;7534;50.762;7.000;2022-12-18T11:17:29;-0.70;97.10
14884;DHT22;7534;50.762;7.000;2022-12-18T11:20:06;-0.60;97.20
14884;DHT22;7534;50.762;7.000;2022-12-18T11:22:58;-0.70;96.80
14884;DHT22;7534;50.762;7.000;2022-12-18T11:25:26;-0.70;96.70
14884;DHT22;7534;50.762;7.000;2022-12-18T11:27:55;-0.80;96.90
14884;DHT22;7534;50.762;7.000;2022-12-18T11:30:36;-0.80;97.10
14884;DHT22;7534;50.762;7.000;2022-12-18T11:38:26;-0.60;97.30
14884;DHT22;7534;50.762;7.000;2022-12-18T11:43:40;-0.60;96.80
14884;DHT22;7534;50.762;7.000;2022-12-18T11:46:19;-0.70;96.70
14884;DHT22;7534;50.762;7.000;2022-12-18T11:49:17;-0.60;96.90
14884;DHT22;7534;50.762;7.000;2022-12-18T11:52:09;-0.60;97.00
14884;DHT22;7534;50.762;7.000;2022-12-18T11:54:51;-0.70;96.80
14884;DHT22;7534;50.762;7.000;2022-12-18T12:00:14;-0.60;96.70
14884;DHT22;7534;50.762;7.000;2022-12-18T12:06:22;-0.40;97.00
14884;DHT22;7534;50.762;7.000;2022-12-18T12:09:38;-0.50;96.70
14884;DHT22;7534;50.762;7.000;2022-12-18T12:26:49;-0.70;97.50
14884;DHT22;7534;50.762;7.000;2022-12-18T12:38:26;-0.60;97.10
14884;DHT22;7534;50.762;7.000;2022-12-18T12:41:00;-0.70;97.00
14884;DHT22;7534;50.762;7.000;2022-12-18T12:43:44;-0.80;97.30
14884;DHT22;7534;50.762;7.000;2022-12-18T12:46:16;-0.60;97.50
14884;DHT22;7534;50.762;7.000;2022-12-18T12:48:50;-0.60;97.30
14884;DHT22;7534;50.762;7.000;2022-12-18T12:51:26;-0.70;97.00
14884;DHT22;7534;50.762;7.000;2022-12-18T12:53:58;-0.70;97.60
14884;DHT22;7534;50.762;7.000;2022-12-18T12:56:38;-0.70;97.30
14884;DHT22;7534;50.762;7.000;2022-12-18T13:02:42;-0.60;97.40
14884;DHT22;7534;50.762;7.000;2022-12-18T13:05:26;-0.60;97.40
14884;DHT22;7534;50.762;7.000;2022-12-18T13:08:10;-0.60;97.30
14884;DHT22;7534;50.762;7.000;2022-12-18T13:10:46;-0.60;97.30
14884;DHT22;7534;50.762;7.000;2022-12-18T13:13:13;-0.50;97.30
14884;DHT22;7534;50.762;7.000;2022-12-18T13:15:49;-0.50;97.10
14884;DHT22;7534;50.762;7.000;2022-12-18T13:18:30;-0.60;97.10
14884;DHT22;7534;50.762;7.000;2022-12-18T13:25:52;-0.50;97.40
14884;DHT22;7534;50.762;7.000;2022-12-18T13:34:22;-0.60;97.20
14884;DHT22;7534;50.762;7.000;2022-12-18T13:36:50;-0.70;97.20
14884;DHT22;7534;50.762;7.000;2022-12-18T13:39:31;-0.70;97.40
14884;DHT22;7534;50.762;7.000;2022-12-18T13:44:35;-0.70;97.00
14884;DHT22;7534;50.762;7.000;2022-12-18T13:47:03;-0.70;97.30
14884;DHT22;7534;50.762;7.000;2022-12-18T13:49:38;-0.70;97.10
14884;DHT22;7534;50.762;7.000;2022-12-18T13:52:24;-0.70;97.20
14884;DHT22;7534;50.762;7.000;2022-12-18T13:54:56;-0.60;97.00
14884;DHT22;7534;50.762;7.000;2022-12-18T13:57:30;-0.70;97.00
14884;DHT22;7534;50.762;7.000;2022-12-18T13:59:57;-0.70;97.10
14884;DHT22;7534;50.762;7.000;2022-12-18T14:02:37;-0.70;97.10
14884;DHT22;7534;50.762;7.000;2022-12-18T14:05:03;-0.70;97.00
14884;DHT22;7534;50.762;7.000;2022-12-18T14:07:29;-0.70;96.90
14884;DHT22;7534;50.762;7.000;2022-12-18T14:09:58;-0.70;96.80
14884;DHT22;7534;50.762;7.000;2022-12-18T14:12:33;-1.00;96.80
14884;DHT22;7534;50.762;7.000;2022-12-18T14:17:57;-1.00;97.40
14884;DHT22;7534;50.762;7.000;2022-12-18T14:20:27;-1.00;97.40
14884;DHT22;7534;50.762;7.000;2022-12-18T14:22:56;-1.00;97.50
14884;DHT22;7534;50.762;7.000;2022-12-18T14:25:25;-1.00;97.70
14884;DHT22;7534;50.762;7.000;2022-12-18T14:30:41;-0.80;97.60
14884;DHT22;7534;50.762;7.000;2022-12-18T14:33:14;-0.90;97.20
14884;DHT22;7534;50.762;7.000;2022-12-18T14:36:04;-0.90;97.30
14884;DHT22;7534;50.762;7.000;2022-12-18T14:38:36;-0.90;97.40
14884;DHT22;7534;50.762;7.000;2022-12-18T14:41:11;-1.10;97.60
14884;DHT22;7534;50.762;7.000;2022-12-18T14:43:40;-1.10;97.70
14884;DHT22;7534;50.762;7.000;2022-12-18T14:49:02;-1.20;97.70
14884;DHT22;7534;50.762;7.000;2022-12-18T14:51:31;-1.20;97.70
14884;DHT22;7534;50.762;7.000;2022-12-18T14:54:05;-1.30;97.70
14884;DHT22;7534;50.762;7.000;2022-12-18T14:56:48;-1.30;97.80
14884;DHT22;7534;50.762;7.000;2022-12-18T14:59:23;-1.40;97.90
14884;DHT22;7534;50.762;7.000;2022-12-18T15:05:28;-1.50;98.10
14884;DHT22;7534;50.762;7.000;2022-12-18T15:07:57;-1.50;98.10
14884;DHT22;7534;50.762;7.000;2022-12-18T15:10:33;-1.40;98.10
14884;DHT22;7534;50.762;7.000;2022-12-18T15:20:51;-1.40;98.20
14884;DHT22;7534;50.762;7.000;2022-12-18T15:23:45;-1.50;98.20
14884;DHT22;7534;50.762;7.000;2022-12-18T15:26:10;-1.50;98.20
14884;DHT22;7534;50.762;7.000;2022-12-18T15:33:39;-1.30;98.00
14884;DHT22;7534;50.762;7.000;2022-12-18T15:36:15;-1.40;98.20
14884;DHT22;7534;50.762;7.000;2022-12-18T15:38:47;-1.30;98.10
14884;DHT22;7534;50.762;7.000;2022-12-18T15:41:15;-1.40;97.90
14884;DHT22;7534;50.762;7.000;2022-12-18T15:43:43;-1.30;98.00
14884;DHT22;7534;50.762;7.000;2022-12-18T15:46:20;-1.30;98.00
14884;DHT22;7534;50.762;7.000;2022-12-18T15:48:50;-1.30;97.90
14884;DHT22;7534;50.762;7.000;2022-12-18T15:51:20;-1.30;98.20
14884;DHT22;7534;50.762;7.000;2022-12-18T15:53:50;-1.20;98.30
14884;DHT22;7534;50.762;7.000;2022-12-18T15:56:19;-1.20;98.30
14884;DHT22;7534;50.762;7.000;2022-12-18T15:59:15;-1.20;98.30
14884;DHT22;7534;50.762;7.000;2022-12-18T16:01:47;-1.30;98.40
14884;DHT22;7534;50.762;7.000;2022-12-18T16:04:16;-1.30;98.60
14884;DHT22;7534;50.762;7.000;2022-12-18T16:06:44;-1.30;98.60
14884;DHT22;7534;50.762;7.000;2022-12-18T16:09:09;-1.20;98.60
14884;DHT22;7534;50.762;7.000;2022-12-18T16:11:37;-1.30;98.50
14884;DHT22;7534;50.762;7.000;2022-12-18T16:14:18;-1.20;98.50
14884;DHT22;7534;50.762;7.000;2022-12-18T16:16:45;-1.20;98.60
14884;DHT22;7534;50.762;7.000;2022-12-18T16:19:13;-1.30;98.60
14884;DHT22;7534;50.762;7.000;2022-12-18T16:21:39;-1.30;98.80
14884;DHT22;7534;50.762;7.000;2022-12-18T16:24:15;-1.30;98.80
14884;DHT22;7534;50.762;7.000;2022-12-18T16:26:47;-1.30;99.00
14884;DHT22;7534;50.762;7.000;2022-12-18T16:29:14;-1.30;99.10
14884;DHT22;7534;50.762;7.000;2022-12-18T16:31:44;-1.30;99.20
14884;DHT22;7534;50.762;7.000;2022-12-18T16:36:55;-1.40;99.20
14884;DHT22;7534;50.762;7.000;2022-12-18T16:39:22;-1.30;99.30
14884;DHT22;7534;50.762;7.000;2022-12-18T16:41:48;-1.40;99.20
14884;DHT22;7534;50.762;7.000;2022-12-18T16:44:15;-1.40;99.70
14884;DHT22;7534;50.762;7.000;2022-12-18T16:46:43;-1.40;99.30
14884;DHT22;7534;50.762;7.000;2022-12-18T16:49:14;-1.40;99.30
14884;DHT22;7534;50.762;7.000;2022-12-18T16:51:43;-1.30;99.50
14884;DHT22;7534;50.762;7.000;2022-12-18T16:54:11;-1.40;99.40
14884;DHT22;7534;50.762;7.000;2022-12-18T16:56:38;-1.40;99.60
14884;DHT22;7534;50.762;7.000;2022-12-18T16:59:04;-1.40;99.50
14884;DHT22;7534;50.762;7.000;2022-12-18T17:01:31;-1.40;99.70
14884;DHT22;7534;50.762;7.000;2022-12-18T17:04:02;-1.40;99.70
14884;DHT22;7534;50.762;7.000;2022-12-18T17:06:33;-1.40;99.80
14884;DHT22;7534;50.762;7.000;2022-12-18T17:09:07;-1.50;99.80
14884;DHT22;7534;50.762;7.000;2022-12-18T17:11:36;-1.50;99.90
14884;DHT22;7534;50.762;7.000;2022-12-18T17:14:13;-1.60;99.90
14884;DHT22;7534;50.762;7.000;2022-12-18T17:16:41;-1.60;99.90
14884;DHT22;7534;50.762;7.000;2022-12-18T17:19:07;-1.60;99.90
14884;DHT22;7534;50.762;7.000;2022-12-18T17:21:33;-1.60;99.90
14884;DHT22;7534;50.762;7.000;2022-12-18T17:24:00;-1.50;99.90
14884;DHT22;7534;50.762;7.000;2022-12-18T17:26:27;-1.50;99.90
14884;DHT22;7534;50.762;7.000;2022-12-18T17:28:55;-1.50;99.90
14884;DHT22;7534;50.762;7.000;2022-12-18T17:31:25;-1.50;99.90
14884;DHT22;7534;50.762;7.000;2022-12-18T17:33:53;-1.50;99.90
14884;DHT22;7534;50.762;7.000;2022-12-18T17:36:20;-1.50;99.90
14884;DHT22;7534;50.762;7.000;2022-12-18T17:38:53;-1.50;99.90
14884;DHT22;7534;50.762;7.000;2022-12-18T17:41:21;-1.60;99.90
14884;DHT22;7534;50.762;7.000;2022-12-18T17:44:06;-1.40;99.90
14884;DHT22;7534;50.762;7.000;2022-12-18T17:46:33;-1.50;99.90
14884;DHT22;7534;50.762;7.000;2022-12-18T17:49:00;-1.50;99.90
14884;DHT22;7534;50.762;7.000;2022-12-18T17:51:28;-1.50;99.90
14884;DHT22;7534;50.762;7.000;2022-12-18T17:53:53;-1.40;99.90
14884;DHT22;7534;50.762;7.000;2022-12-18T17:56:21;-1.50;99.90
14884;DHT22;7534;50.762;7.000;2022-12-18T17:58:49;-1.50;99.90
14884;DHT22;7534;50.762;7.000;2022-12-18T18:01:18;-1.50;99.90
14884;DHT22;7534;50.762;7.000;2022-12-18T18:03:46;-1.50;99.90
14884;DHT22;7534;50.762;7.000;2022-12-18T18:06:12;-1.60;99.90
14884;DHT22;7534;50.762;7.000;2022-12-18T18:08:39;-1.60;99.90
14884;DHT22;7534;50.762;7.000;2022-12-18T18:11:07;-1.60;99.90
14884;DHT22;7534;50.762;7.000;2022-12-18T18:13:55;-1.60;99.90
14884;DHT22;7534;50.762;7.000;2022-12-18T18:16:39;-1.60;99.90
14884;DHT22;7534;50.762;7.000;2022-12-18T18:19:09;-1.60;99.90
14884;DHT22;7534;50.762;7.000;2022-12-18T18:21:41;-1.60;99.90
14884;DHT22;7534;50.762;7.000;2022-12-18T18:24:09;-1.60;99.90
14884;DHT22;7534;50.762;7.000;2022-12-18T18:26:37;-1.60;99.90
14884;DHT22;7534;50.762;7.000;2022-12-18T18:29:10;-1.40;99.90